createdAt,value
2023-05-16T00:01:35.845Z,10.90
2023-05-16T00:11:34.621Z,11.40
2023-05-16T00:16:37.779Z,11.00
2023-05-16T00:19:07.474Z,10.90
2023-05-16T00:21:37.154Z,10.10
2023-05-16T00:24:07.400Z,10.90
2023-05-16T00:26:37.796Z,11.00
2023-05-16T00:29:07.212Z,10.90
2023-05-16T00:31:38.753Z,10.90
2023-05-16T00:36:39.273Z,10.90
2023-05-16T00:41:40.863Z,10.90
2023-05-16T00:44:10.536Z,10.90
2023-05-16T00:46:41.934Z,10.80
2023-05-16T00:49:11.017Z,10.80
2023-05-16T00:51:42.169Z,10.80
2023-05-16T00:54:11.644Z,10.80
2023-05-16T00:56:41.636Z,10.80
2023-05-16T01:01:43.658Z,10.40
2023-05-16T01:04:12.697Z,10.70
2023-05-16T01:06:41.467Z,10.80
2023-05-16T01:16:52.545Z,10.80
2023-05-16T01:19:43.968Z,9.90
2023-05-16T01:22:17.877Z,10.80
2023-05-16T01:25:00.493Z,10.80
2023-05-16T01:27:31.959Z,10.80
2023-05-16T01:30:00.917Z,10.60
2023-05-16T01:32:30.101Z,10.80
2023-05-16T01:34:58.363Z,10.70
2023-05-16T01:40:08.081Z,10.70
2023-05-16T01:45:15.413Z,8.40
2023-05-16T01:55:22.756Z,10.20
2023-05-16T01:57:55.367Z,10.50
2023-05-16T02:02:52.906Z,10.40
2023-05-16T02:05:21.795Z,10.60
2023-05-16T02:07:51.053Z,10.50
2023-05-16T02:10:20.134Z,10.50
2023-05-16T02:20:17.233Z,10.30
2023-05-16T02:22:47.938Z,10.50
2023-05-16T02:25:17.952Z,10.20
2023-05-16T02:27:47.681Z,11.60
2023-05-16T02:30:20.452Z,10.30
2023-05-16T02:35:22.084Z,10.20
2023-05-16T02:37:51.451Z,10.40
2023-05-16T02:45:27.768Z,10.20
2023-05-16T02:52:56.050Z,10.20
2023-05-16T02:55:26.824Z,10.10
2023-05-16T02:57:56.938Z,10.30
2023-05-16T03:00:27.844Z,10.30
2023-05-16T03:02:57.420Z,10.30
2023-05-16T03:05:27.305Z,12.40
2023-05-16T03:07:58.245Z,10.50
2023-05-16T03:10:27.301Z,10.30
2023-05-16T03:23:19.720Z,10.00
2023-05-16T03:25:49.344Z,10.40
2023-05-16T03:28:19.445Z,10.30
2023-05-16T03:41:25.147Z,10.20
2023-05-16T03:43:55.456Z,10.20
2023-05-16T03:46:26.048Z,10.30
2023-05-16T03:48:58.696Z,10.20
2023-05-16T03:51:31.569Z,10.20
2023-05-16T03:54:01.570Z,10.20
2023-05-16T03:59:02.439Z,10.20
2023-05-16T04:01:32.960Z,10.20
2023-05-16T04:04:03.167Z,10.10
2023-05-16T04:06:35.345Z,10.00
2023-05-16T04:09:04.584Z,9.80
2023-05-16T04:14:08.927Z,10.20
2023-05-16T04:16:38.252Z,10.30
2023-05-16T04:19:07.008Z,10.30
2023-05-16T04:21:37.765Z,10.20
2023-05-16T04:24:08.071Z,10.20
2023-05-16T04:26:37.542Z,10.20
2023-05-16T04:29:08.856Z,10.30
2023-05-16T04:31:39.993Z,10.20
2023-05-16T04:34:23.292Z,10.20
2023-05-16T04:36:53.953Z,10.20
2023-05-16T04:39:22.776Z,10.00
2023-05-16T04:41:51.424Z,10.10
2023-05-16T04:44:23.377Z,10.20
2023-05-16T04:49:41.944Z,10.20
2023-05-16T04:52:12.573Z,10.50
2023-05-16T04:54:41.142Z,10.20
2023-05-16T04:57:13.334Z,10.40
2023-05-16T04:59:43.684Z,10.20
2023-05-16T05:02:24.484Z,10.20
2023-05-16T05:04:53.852Z,10.10
2023-05-16T05:07:28.357Z,10.50
2023-05-16T05:09:57.030Z,10.40
2023-05-16T05:12:25.218Z,10.00
2023-05-16T05:14:53.519Z,10.40
2023-05-16T05:17:22.528Z,10.20
2023-05-16T05:19:50.598Z,10.20
2023-05-16T05:22:18.649Z,10.20
2023-05-16T05:24:48.492Z,10.20
2023-05-16T05:27:17.595Z,10.20
2023-05-16T05:29:55.859Z,10.10
2023-05-16T05:32:24.813Z,10.10
2023-05-16T05:34:56.295Z,10.20
2023-05-16T05:37:24.447Z,10.10
2023-05-16T05:39:53.985Z,10.10
2023-05-16T05:42:22.357Z,10.00
2023-05-16T05:44:51.040Z,11.40
2023-05-16T05:47:19.943Z,10.20
2023-05-16T05:49:49.146Z,10.30
2023-05-16T05:52:22.551Z,10.20
2023-05-16T05:54:51.240Z,10.30
2023-05-16T05:57:21.528Z,10.30
2023-05-16T05:59:50.117Z,10.10
2023-05-16T06:02:19.267Z,10.30
2023-05-16T06:04:47.995Z,10.40
2023-05-16T06:09:45.747Z,10.50
2023-05-16T06:14:47.091Z,10.40
2023-05-16T06:17:20.691Z,10.50
2023-05-16T06:19:49.370Z,10.80
2023-05-16T06:22:17.832Z,10.70
2023-05-16T06:24:48.908Z,10.80
2023-05-16T06:27:18.158Z,10.60
2023-05-16T06:34:45.834Z,10.80
2023-05-16T06:39:42.181Z,10.90
2023-05-16T06:42:11.013Z,11.20
2023-05-16T06:44:38.895Z,11.10
2023-05-16T06:47:08.181Z,11.00
2023-05-16T06:49:36.128Z,11.20
2023-05-16T06:52:04.577Z,10.90
2023-05-16T06:54:32.546Z,10.70
2023-05-16T06:57:00.394Z,11.30
2023-05-16T07:06:57.595Z,11.10
2023-05-16T07:16:50.594Z,11.30
2023-05-16T07:19:18.556Z,11.60
2023-05-16T07:21:47.866Z,11.50
2023-05-16T07:26:43.979Z,11.20
2023-05-16T07:29:11.967Z,11.20
2023-05-16T07:31:39.861Z,11.60
2023-05-16T07:34:07.925Z,11.40
2023-05-16T07:36:36.114Z,11.40
2023-05-16T07:41:33.920Z,11.10
2023-05-16T07:44:01.845Z,11.10
2023-05-16T07:46:29.768Z,11.30
2023-05-16T07:48:57.747Z,11.40
2023-05-16T07:51:25.714Z,11.30
2023-05-16T07:53:53.618Z,11.30
2023-05-16T07:56:23.654Z,11.10
2023-05-16T08:06:17.096Z,11.50
2023-05-16T08:08:45.078Z,11.60
2023-05-16T08:11:13.213Z,11.50
2023-05-16T08:13:43.442Z,11.40
2023-05-16T08:16:11.732Z,11.40
2023-05-16T08:18:39.731Z,11.30
2023-05-16T08:21:07.618Z,11.30
2023-05-16T08:23:36.232Z,11.20
2023-05-16T08:26:04.660Z,11.60
2023-05-16T08:28:33.198Z,11.40
2023-05-16T08:31:03.015Z,11.80
2023-05-16T08:33:31.303Z,11.40
2023-05-16T08:36:00.868Z,12.10
2023-05-16T08:38:28.934Z,11.40
2023-05-16T08:40:57.237Z,11.90
2023-05-16T15:49:04.570Z,11.00
2023-05-16T15:51:32.603Z,10.80
2023-05-16T15:58:59.427Z,10.60
